Time;durP1;ratioP1;P1;durP2;ratioP2;P2;SDS_P1;SDS_P2;PMS_P1;PMS_P2;Temp;Humidity;BMP_temperature;BMP_pressure;BME280_temperature;BME280_humidity;BME280_pressure;Samples;Min_cycle;Max_cycle;Signal;HPM_P1;HPM_P2
2022/03/04 00:00:22;;;;;;;27.88;16.88;;;;;;;12.16;68.10;101115.56;5017232;28;20061;-65
2022/03/04 00:02:49;;;;;;;32.17;16.52;;;;;;;12.09;68.13;101119.88;5011727;28;20050;-65
2022/03/04 00:05:17;;;;;;;31.52;17.85;;;;;;;11.80;69.15;101122.25;5013976;28;20045;-65
2022/03/04 00:07:44;;;;;;;31.55;17.80;;;;;;;11.78;69.16;101117.03;5013018;28;20049;-65
2022/03/04 00:10:11;;;;;;;29.27;16.33;;;;;;;12.09;68.83;101120.69;5015500;28;20054;-65
2022/03/04 00:12:38;;;;;;;32.17;17.95;;;;;;;11.95;68.85;101130.97;5021871;28;20050;-65
2022/03/04 00:15:06;;;;;;;29.08;16.63;;;;;;;12.16;68.33;101125.78;5013478;28;20057;-65
2022/03/04 00:17:33;;;;;;;26.45;14.95;;;;;;;12.05;67.84;101118.84;5017201;28;20057;-66
2022/03/04 00:20:01;;;;;;;27.08;15.35;;;;;;;11.95;67.96;101122.69;5017827;28;20049;-65
2022/03/04 00:22:28;;;;;;;30.60;15.02;;;;;;;12.03;67.77;101116.41;5017824;28;20046;-65
2022/03/04 00:24:55;;;;;;;31.95;15.65;;;;;;;12.29;67.20;101128.47;5012717;28;20054;-65
2022/03/04 00:27:23;;;;;;;22.83;14.73;;;;;;;12.22;67.12;101122.56;5012009;28;20045;-65
2022/03/04 00:29:50;;;;;;;24.58;14.73;;;;;;;12.09;67.18;101122.63;5019904;28;20072;-65
2022/03/04 00:32:17;;;;;;;28.45;15.13;;;;;;;11.94;67.90;101121.03;5020012;28;20060;-65
2022/03/04 00:34:45;;;;;;;27.02;13.77;;;;;;;11.91;67.71;101116.16;5022335;28;20057;-65
2022/03/04 00:37:12;;;;;;;32.42;15.20;;;;;;;11.86;67.96;101116.28;5009749;28;20148;-65
2022/03/04 00:39:39;;;;;;;29.35;14.43;;;;;;;11.98;67.56;101115.72;5011109;28;20437;-65
2022/03/04 00:42:07;;;;;;;29.80;14.40;;;;;;;11.89;67.76;101120.38;4999158;28;20060;-66
2022/03/04 00:44:34;;;;;;;30.98;14.77;;;;;;;11.99;67.25;101120.13;5023531;28;20061;-65
2022/03/04 00:47:01;;;;;;;27.27;13.85;;;;;;;11.87;67.79;101122.63;5015038;28;20057;-65
2022/03/04 00:49:29;;;;;;;30.83;15.40;;;;;;;11.87;67.74;101117.91;5008585;28;20524;-65
2022/03/04 00:51:56;;;;;;;30.55;15.48;;;;;;;11.65;68.52;101122.56;5017321;28;20438;-66
2022/03/04 00:54:24;;;;;;;32.90;16.00;;;;;;;11.42;69.40;101120.88;5014766;28;20050;-64
2022/03/04 00:56:51;;;;;;;27.42;15.95;;;;;;;11.47;69.34;101129.88;5028278;28;20396;-64
2022/03/04 00:59:18;;;;;;;29.00;15.68;;;;;;;11.37;69.68;101129.25;5016838;28;20038;-66
2022/03/04 01:01:46;;;;;;;26.73;15.30;;;;;;;11.32;70.03;101128.25;4996644;28;20508;-65
2022/03/04 01:04:13;;;;;;;27.45;15.82;;;;;;;11.40;70.08;101132.22;5014573;28;20049;-65
2022/03/04 01:06:41;;;;;;;26.40;15.88;;;;;;;11.59;69.22;101127.38;5017446;28;20050;-66
2022/03/04 01:09:08;;;;;;;26.13;16.50;;;;;;;11.45;69.56;101126.59;5017436;28;20069;-65
2022/03/04 01:11:37;;;;;;;28.85;16.42;;;;;;;11.29;69.93;101126.09;5013237;28;20399;-66
2022/03/04 01:14:06;;;;;;;36.67;16.67;;;;;;;11.59;69.10;101124.63;5014824;28;20054;-65
2022/03/04 01:16:34;;;;;;;34.17;16.63;;;;;;;11.64;68.93;101130.06;5009027;28;20045;-65
2022/03/04 01:19:02;;;;;;;29.60;16.23;;;;;;;11.74;68.61;101129.00;4995266;28;20058;-65
2022/03/04 01:21:29;;;;;;;32.55;17.15;;;;;;;11.67;68.79;101126.66;5009787;28;20054;-65
2022/03/04 01:23:57;;;;;;;27.40;15.82;;;;;;;11.86;68.08;101120.97;5010323;28;20061;-65
2022/03/04 01:26:24;;;;;;;33.15;16.48;;;;;;;11.86;68.17;101121.81;5017981;28;20081;-66
2022/03/04 01:28:51;;;;;;;25.67;15.93;;;;;;;11.88;68.29;101119.53;5015579;28;20056;-65
2022/03/04 01:31:18;;;;;;;33.58;16.55;;;;;;;11.79;68.43;101117.84;5014635;28;20054;-64
2022/03/04 01:33:46;;;;;;;30.33;16.65;;;;;;;11.69;68.56;101118.06;5013679;28;20060;-64
2022/03/04 01:36:13;;;;;;;32.42;17.30;;;;;;;11.70;68.65;101119.72;5021928;28;20052;-65
2022/03/04 01:38:41;;;;;;;31.08;16.27;;;;;;;11.85;68.33;101116.59;5014784;28;20054;-65
2022/03/04 01:41:08;;;;;;;30.80;16.58;;;;;;;12.07;67.76;101124.88;5016034;28;20053;-65
2022/03/04 01:43:35;;;;;;;30.92;16.85;;;;;;;11.99;67.77;101120.94;5014819;28;20041;-65
2022/03/04 01:46:11;;;;;;;33.08;16.33;;;;;;;11.91;68.25;101116.16;5016466;28;20061;-65
2022/03/04 01:48:40;;;;;;;31.73;16.17;;;;;;;11.71;68.60;101129.63;5016422;28;20058;-64
2022/03/04 01:51:08;;;;;;;32.70;17.50;;;;;;;11.47;69.36;101123.53;5015730;28;20053;-65
2022/03/04 01:53:36;;;;;;;30.85;17.45;;;;;;;11.41;70.37;101124.75;5013308;28;20049;-66
2022/03/04 01:56:04;;;;;;;32.25;17.38;;;;;;;11.89;68.85;101114.84;5008681;28;20046;-65
2022/03/04 01:58:32;;;;;;;31.90;16.63;;;;;;;11.65;69.24;101117.06;5015417;28;20061;-65
2022/03/04 02:01:00;;;;;;;28.23;15.38;;;;;;;11.92;68.49;101114.22;5013496;28;20069;-64
2022/03/04 02:03:28;;;;;;;33.53;16.90;;;;;;;12.08;68.19;101104.44;5013799;28;20049;-65
2022/03/04 02:05:56;;;;;;;31.20;17.77;;;;;;;11.98;67.72;101101.91;5013408;28;20049;-66
2022/03/04 02:08:23;;;;;;;31.10;15.80;;;;;;;11.73;68.82;101106.13;5016359;28;20065;-65
2022/03/04 02:10:50;;;;;;;30.83;17.10;;;;;;;11.62;69.17;101093.63;5014684;28;20046;-65
2022/03/04 02:13:18;;;;;;;32.75;16.05;;;;;;;11.82;68.81;101095.16;5015325;28;20050;-65
2022/03/04 02:15:45;;;;;;;29.90;16.48;;;;;;;11.76;68.71;101099.97;5014868;28;20050;-66
2022/03/04 02:18:14;;;;;;;29.52;15.63;;;;;;;11.72;69.06;101098.13;5011087;28;20520;-65
2022/03/04 02:20:46;;;;;;;32.30;15.43;;;;;;;11.63;69.24;101100.78;5014755;28;20053;-65
2022/03/04 02:23:15;;;;;;;25.35;14.55;;;;;;;11.59;69.62;101098.97;5027425;28;20087;-65
2022/03/04 02:25:45;;;;;;;31.58;16.17;;;;;;;11.75;69.09;101092.81;5016302;28;20046;-66
2022/03/04 02:28:12;;;;;;;29.70;15.68;;;;;;;11.59;69.71;101085.16;5011418;28;20046;-65
2022/03/04 02:30:40;;;;;;;25.25;15.25;;;;;;;11.69;69.49;101096.00;5014103;28;20493;-65
2022/03/04 02:33:07;;;;;;;29.10;15.05;;;;;;;11.79;68.83;101090.22;5024369;28;20057;-65
2022/03/04 02:35:36;;;;;;;24.27;15.00;;;;;;;11.91;68.51;101087.72;5013206;28;20054;-67
2022/03/04 02:38:03;;;;;;;27.25;16.33;;;;;;;11.57;69.59;101091.00;5010742;28;20049;-64
2022/03/04 02:40:31;;;;;;;22.98;15.20;;;;;;;11.45;70.28;101093.50;5013924;28;20061;-65
2022/03/04 02:42:58;;;;;;;28.27;15.35;;;;;;;11.62;69.82;101090.06;5030903;28;20049;-65
2022/03/04 02:45:25;;;;;;;26.25;15.80;;;;;;;11.64;69.74;101090.56;5014764;28;20061;-65
2022/03/04 02:47:53;;;;;;;31.05;16.20;;;;;;;11.63;69.80;101095.25;5014652;28;20061;-65
2022/03/04 02:50:20;;;;;;;31.95;17.25;;;;;;;11.47;70.17;101095.94;5009540;28;20054;-65
2022/03/04 02:52:48;;;;;;;27.58;16.90;;;;;;;11.38;70.59;101097.78;5013763;28;20049;-65
2022/03/04 02:55:15;;;;;;;30.05;16.90;;;;;;;10.96;71.89;101102.53;5013884;28;20050;-65
2022/03/04 02:57:45;;;;;;;30.67;17.63;;;;;;;11.10;72.21;101100.59;5013390;28;20037;-65
2022/03/04 03:00:14;;;;;;;29.02;17.98;;;;;;;11.05;72.58;101106.19;5014068;28;20053;-65
2022/03/04 03:02:41;;;;;;;29.95;16.88;;;;;;;11.23;72.36;101098.91;5009266;28;20045;-65
2022/03/04 03:05:09;;;;;;;30.60;18.05;;;;;;;11.09;72.50;101106.38;5014376;28;20054;-66
2022/03/04 03:07:39;;;;;;;38.03;19.57;;;;;;;11.05;73.21;101106.19;5019347;28;20052;-66
2022/03/04 03:10:07;;;;;;;33.65;19.58;;;;;;;11.26;72.46;101101.88;5014102;28;20054;-65
2022/03/04 03:12:34;;;;;;;36.72;19.13;;;;;;;11.23;72.54;101107.19;5010494;28;20057;-65
2022/03/04 03:15:02;;;;;;;34.05;21.02;;;;;;;11.35;72.05;101104.72;5013465;28;20050;-66
2022/03/04 03:17:29;;;;;;;40.10;21.50;;;;;;;10.81;73.59;101108.34;5012341;28;20053;-65
2022/03/04 03:19:57;;;;;;;32.13;20.40;;;;;;;10.74;74.49;101109.88;5015341;28;20409;-65
2022/03/04 03:22:24;;;;;;;38.45;21.58;;;;;;;10.84;74.21;101113.25;5020208;28;20049;-66
2022/03/04 03:24:52;;;;;;;34.63;20.25;;;;;;;10.65;75.13;101112.50;5008517;28;20042;-66
2022/03/04 03:27:19;;;;;;;39.50;21.08;;;;;;;10.56;75.46;101108.00;5013914;28;20057;-66
2022/03/04 03:29:47;;;;;;;35.00;20.50;;;;;;;10.62;75.37;101104.03;5012768;28;20061;-65
2022/03/04 03:32:14;;;;;;;40.35;19.67;;;;;;;10.57;75.46;101106.88;5013537;28;20064;-65
2022/03/04 03:34:42;;;;;;;35.58;21.27;;;;;;;10.61;75.10;101100.47;5009927;28;20042;-65
2022/03/04 03:37:10;;;;;;;38.63;21.02;;;;;;;10.41;75.68;101108.28;5016378;28;20050;-66
2022/03/04 03:39:37;;;;;;;37.40;20.50;;;;;;;10.48;75.48;101112.28;4995881;28;20050;-65
2022/03/04 03:42:05;;;;;;;38.80;20.98;;;;;;;10.71;74.75;101111.28;5013621;28;20049;-66
2022/03/04 03:44:33;;;;;;;31.48;19.30;;;;;;;10.72;74.73;101118.41;5014297;28;20413;-65
2022/03/04 03:47:01;;;;;;;35.53;19.73;;;;;;;10.72;74.18;101112.91;5015932;28;20037;-66
2022/03/04 03:49:28;;;;;;;38.90;20.75;;;;;;;10.73;74.34;101114.56;4999894;28;20068;-65
2022/03/04 03:51:56;;;;;;;34.75;19.10;;;;;;;10.96;73.97;101113.56;5015558;28;20042;-66
2022/03/04 03:54:23;;;;;;;36.08;20.67;;;;;;;10.89;73.69;101110.41;5015907;28;20993;-65
2022/03/04 03:56:51;;;;;;;39.53;20.17;;;;;;;11.02;73.29;101111.50;5011417;28;20050;-66
2022/03/04 03:59:18;;;;;;;33.70;18.70;;;;;;;10.74;73.95;101113.44;5014668;28;20058;-65
2022/03/04 04:01:45;;;;;;;35.28;19.92;;;;;;;11.02;73.18;101117.00;5009171;28;20061;-65
2022/03/04 04:04:13;;;;;;;31.63;20.67;;;;;;;10.72;73.96;101121.19;5015991;28;20053;-66
2022/03/04 04:06:42;;;;;;;34.45;20.90;;;;;;;10.62;75.04;101126.88;5020580;28;20065;-65
2022/03/04 04:09:10;;;;;;;44.28;24.45;;;;;;;10.17;76.71;101128.50;5017478;28;20046;-66
2022/03/04 04:11:39;;;;;;;38.15;24.25;;;;;;;10.05;77.93;101128.13;5018311;28;20053;-65
2022/03/04 04:14:08;;;;;;;50.95;27.23;;;;;;;9.83;79.07;101125.16;5018765;28;20056;-64
2022/03/04 04:16:36;;;;;;;41.90;25.38;;;;;;;9.69;80.45;101120.72;5016275;28;20073;-65
2022/03/04 04:19:04;;;;;;;42.30;25.20;;;;;;;10.22;79.70;101118.53;5014218;28;20057;-65
2022/03/04 04:21:31;;;;;;;43.58;26.50;;;;;;;10.15;78.73;101125.25;5015188;28;20045;-65
2022/03/04 04:23:58;;;;;;;46.97;28.40;;;;;;;10.18;78.52;101119.13;5017098;28;20493;-65
2022/03/04 04:26:26;;;;;;;49.15;28.80;;;;;;;10.13;78.91;101129.41;5016442;28;20052;-65
2022/03/04 04:28:53;;;;;;;49.42;30.58;;;;;;;10.19;79.01;101114.44;5019046;28;20049;-65
2022/03/04 04:31:21;;;;;;;43.00;28.50;;;;;;;10.07;79.14;101117.66;5010087;28;20055;-65
2022/03/04 04:33:48;;;;;;;48.00;31.38;;;;;;;9.97;80.25;101120.53;5017068;28;20057;-65
2022/03/04 04:36:16;;;;;;;47.70;30.00;;;;;;;10.33;79.28;101118.06;5016496;28;20049;-66
2022/03/04 04:38:43;;;;;;;56.90;32.53;;;;;;;9.98;80.22;101127.69;5009874;28;20050;-65
2022/03/04 04:41:11;;;;;;;49.90;30.13;;;;;;;10.20;79.77;101121.56;5013479;28;20045;-65
2022/03/04 04:43:39;;;;;;;46.00;30.35;;;;;;;10.46;79.00;101125.53;5016527;28;20489;-65
2022/03/04 04:46:06;;;;;;;51.65;30.23;;;;;;;10.53;78.27;101139.72;5016870;28;20042;-66
2022/03/04 04:48:33;;;;;;;51.40;30.23;;;;;;;10.54;77.97;101130.34;5019314;28;20042;-65
2022/03/04 04:51:02;;;;;;;50.38;31.17;;;;;;;10.37;78.42;101143.88;5014384;28;20064;-65
2022/03/04 04:53:30;;;;;;;52.55;33.25;;;;;;;10.17;79.64;101144.22;5017110;28;20049;-65
2022/03/04 04:55:59;;;;;;;50.92;32.25;;;;;;;10.05;80.43;101144.66;5016823;28;20049;-65
2022/03/04 04:58:26;;;;;;;51.95;32.58;;;;;;;9.98;81.49;101149.72;5014299;28;20525;-66
2022/03/04 05:00:54;;;;;;;52.67;33.15;;;;;;;10.05;81.17;101147.41;5015224;28;20050;-65
2022/03/04 05:03:24;;;;;;;53.83;32.58;;;;;;;10.40;80.27;101143.28;5011032;28;20053;-66
2022/03/04 05:05:52;;;;;;;50.65;32.17;;;;;;;10.43;79.34;101142.66;5016523;28;20054;-65
2022/03/04 05:08:20;;;;;;;51.45;31.58;;;;;;;10.36;79.55;101144.16;5019416;28;20065;-65
2022/03/04 05:10:47;;;;;;;47.78;31.13;;;;;;;10.41;79.40;101144.88;5013754;28;20064;-65
2022/03/04 05:13:15;;;;;;;51.60;30.98;;;;;;;10.34;79.38;101155.47;5012851;28;20058;-65
2022/03/04 05:15:42;;;;;;;48.95;31.08;;;;;;;10.38;79.10;101148.25;5018093;28;20046;-65
2022/03/04 05:18:10;;;;;;;47.58;31.05;;;;;;;10.28;80.07;101156.69;5015037;28;20045;-65
2022/03/04 05:20:37;;;;;;;47.92;30.95;;;;;;;10.57;79.21;101156.44;5015055;28;20057;-66
2022/03/04 05:23:05;;;;;;;48.30;31.40;;;;;;;10.54;79.41;101157.91;5019780;28;20058;-65
2022/03/04 05:25:32;;;;;;;49.20;30.95;;;;;;;10.92;78.17;101156.63;5013782;28;20069;-66
2022/03/04 05:27:59;;;;;;;53.45;30.23;;;;;;;10.97;77.23;101158.47;5016946;28;20038;-66
2022/03/04 05:30:27;;;;;;;46.53;30.55;;;;;;;11.00;76.89;101163.38;5015314;28;20057;-65
2022/03/04 05:32:54;;;;;;;45.15;29.73;;;;;;;10.98;76.82;101166.41;4999295;28;20060;-65
2022/03/04 05:35:22;;;;;;;52.00;30.05;;;;;;;10.81;77.37;101163.44;5021146;28;20057;-65
2022/03/04 05:37:49;;;;;;;47.35;31.40;;;;;;;10.73;77.70;101166.09;5016607;28;20061;-65
2022/03/04 05:40:17;;;;;;;61.08;34.17;;;;;;;10.32;80.17;101170.69;5016124;28;20046;-65
2022/03/04 05:42:44;;;;;;;56.20;33.10;;;;;;;10.34;80.70;101169.25;5013782;28;20068;-66
2022/03/04 05:45:11;;;;;;;49.75;32.75;;;;;;;10.43;80.06;101167.44;5015224;28;20061;-65
2022/03/04 05:47:39;;;;;;;53.88;34.28;;;;;;;10.51;80.29;101160.44;5013421;28;20057;-65
2022/03/04 05:50:07;;;;;;;53.97;34.67;;;;;;;10.64;79.25;101165.97;5016126;28;20053;-65
2022/03/04 05:52:34;;;;;;;50.00;32.83;;;;;;;10.88;78.70;101160.31;4997260;28;20057;-65
2022/03/04 05:55:02;;;;;;;48.15;31.02;;;;;;;10.85;78.43;101163.66;5014955;28;20042;-65
2022/03/04 05:57:29;;;;;;;49.85;31.73;;;;;;;11.09;77.43;101164.28;5010207;28;20496;-66
2022/03/04 05:59:58;;;;;;;55.17;30.20;;;;;;;11.18;76.15;101160.50;5015035;28;20037;-66
2022/03/04 06:02:27;;;;;;;44.03;29.48;;;;;;;11.27;75.80;101174.41;5014746;28;20058;-65
2022/03/04 06:04:55;;;;;;;48.95;29.75;;;;;;;11.27;75.62;101166.97;5013374;28;20220;-66
2022/03/04 06:07:22;;;;;;;44.95;30.00;;;;;;;11.27;75.38;101163.38;5013879;28;20422;-65
2022/03/04 06:09:50;;;;;;;45.75;28.50;;;;;;;11.35;75.15;101170.91;5008477;28;20056;-66
2022/03/04 06:12:17;;;;;;;47.55;28.80;;;;;;;11.27;75.31;101172.47;5012459;28;20046;-65
2022/03/04 06:14:44;;;;;;;48.83;30.10;;;;;;;11.34;74.95;101170.13;5014626;28;20049;-66
2022/03/04 06:17:12;;;;;;;48.60;29.33;;;;;;;11.37;74.91;101174.19;5016258;28;20042;-65
2022/03/04 06:19:41;;;;;;;42.65;28.25;;;;;;;11.54;74.42;101177.13;5007948;28;20053;-65
2022/03/04 06:22:08;;;;;;;46.38;28.70;;;;;;;11.58;74.07;101182.84;5014700;28;20057;-65
2022/03/04 06:24:37;;;;;;;51.50;31.75;;;;;;;11.34;74.87;101185.84;5014554;28;20128;-65
2022/03/04 06:27:04;;;;;;;48.28;30.80;;;;;;;11.35;74.52;101182.78;5012010;28;20068;-65
2022/03/04 06:29:31;;;;;;;59.08;31.48;;;;;;;11.12;75.80;101186.53;5010290;28;20054;-65
2022/03/04 06:31:59;;;;;;;57.05;32.40;;;;;;;11.23;75.97;101184.41;5014200;28;20045;-66
2022/03/04 06:34:26;;;;;;;50.05;33.65;;;;;;;11.26;75.46;101181.84;5017473;28;20048;-64
2022/03/04 06:36:57;;;;;;;53.72;31.50;;;;;;;11.35;75.36;101190.22;5015643;28;20052;-65
2022/03/04 06:39:24;;;;;;;48.47;30.42;;;;;;;11.24;75.49;101186.06;5013539;28;20045;-66
2022/03/04 06:41:52;;;;;;;50.53;30.40;;;;;;;11.40;75.13;101194.84;5012953;28;20054;-66
2022/03/04 06:44:19;;;;;;;49.65;31.67;;;;;;;11.47;74.31;101201.59;5014487;28;20050;-66
2022/03/04 06:46:48;;;;;;;46.45;28.90;;;;;;;11.45;74.82;101205.75;5009419;28;20046;-66
2022/03/04 06:49:15;;;;;;;47.22;28.58;;;;;;;11.38;74.64;101208.09;5014292;28;20046;-65
2022/03/04 06:51:43;;;;;;;44.72;29.23;;;;;;;11.65;74.07;101208.94;5011945;28;20260;-68
2022/03/04 06:54:10;;;;;;;53.10;29.23;;;;;;;11.57;74.04;101217.09;5014061;28;20431;-65
2022/03/04 06:56:38;;;;;;;47.42;29.35;;;;;;;11.40;74.47;101222.41;5013746;28;20068;-66
2022/03/04 06:59:05;;;;;;;51.70;30.45;;;;;;;11.44;74.51;101227.00;5012471;28;20044;-66
2022/03/04 07:01:32;;;;;;;47.47;31.20;;;;;;;11.37;75.06;101232.09;5008344;28;20062;-66
2022/03/04 07:04:00;;;;;;;51.78;28.52;;;;;;;11.23;75.10;101223.00;5009409;28;20048;-66
2022/03/04 07:06:27;;;;;;;53.53;28.85;;;;;;;11.47;74.51;101223.66;5013488;28;20056;-66
2022/03/04 07:08:55;;;;;;;44.90;27.98;;;;;;;11.60;73.85;101228.31;5014346;28;20045;-65
2022/03/04 07:11:28;;;;;;;45.92;29.08;;;;;;;11.61;73.75;101223.63;5015364;28;20054;-65
2022/03/04 07:13:55;;;;;;;43.00;26.98;;;;;;;11.70;73.46;101225.38;5011373;28;20049;-66
2022/03/04 07:16:22;;;;;;;48.75;28.67;;;;;;;11.70;73.27;101227.34;5013300;28;20057;-67
2022/03/04 07:18:50;;;;;;;48.58;29.05;;;;;;;11.82;72.46;101225.66;5008288;28;20042;-65
2022/03/04 07:21:17;;;;;;;51.97;29.20;;;;;;;11.84;72.96;101231.69;5016163;28;20053;-64
2022/03/04 07:23:44;;;;;;;48.28;29.58;;;;;;;11.76;72.89;101231.63;5018368;28;20041;-65
2022/03/04 07:26:12;;;;;;;51.58;28.00;;;;;;;11.69;73.43;101236.72;5020330;28;20045;-66
2022/03/04 07:28:39;;;;;;;44.22;28.63;;;;;;;11.51;73.89;101241.19;5012748;28;20054;-65
2022/03/04 07:31:08;;;;;;;45.85;28.73;;;;;;;11.67;73.46;101242.56;5015948;28;20041;-66
2022/03/04 07:33:36;;;;;;;45.78;28.63;;;;;;;11.86;73.21;101242.44;5019482;28;20050;-67
2022/03/04 07:36:04;;;;;;;50.95;28.52;;;;;;;11.86;73.41;101240.50;5017743;28;20527;-62
2022/03/04 07:38:32;;;;;;;52.97;29.13;;;;;;;11.93;72.83;101238.13;5020290;28;20050;-67
2022/03/04 07:41:01;;;;;;;50.05;29.42;;;;;;;11.95;72.98;101248.84;5027552;28;20037;-64
2022/03/04 07:43:28;;;;;;;51.85;28.80;;;;;;;12.27;72.16;101240.41;5020633;28;20057;-64
2022/03/04 07:45:56;;;;;;;47.40;28.33;;;;;;;12.17;71.82;101248.91;5020082;28;20077;-65
2022/03/04 07:48:23;;;;;;;48.92;30.23;;;;;;;12.06;73.65;101253.03;5016633;28;20046;-65
2022/03/04 07:50:50;;;;;;;49.80;32.42;;;;;;;11.03;77.13;101264.75;5019465;28;20064;-63
2022/03/04 07:53:18;;;;;;;52.33;31.80;;;;;;;11.12;77.56;101262.94;5021778;28;20049;-66
2022/03/04 07:55:45;;;;;;;53.85;32.42;;;;;;;11.02;78.00;101266.69;5021621;28;20045;-66
2022/03/04 07:58:12;;;;;;;60.97;33.58;;;;;;;10.91;78.25;101267.97;5018758;28;20052;-66
2022/03/04 08:00:40;;;;;;;59.05;32.72;;;;;;;11.04;78.03;101277.41;5022919;28;20496;-66
2022/03/04 08:03:12;;;;;;;57.63;33.13;;;;;;;10.86;77.37;101273.56;5019619;28;20057;-64
2022/03/04 08:05:40;;;;;;;54.53;33.05;;;;;;;10.20;80.00;101273.81;5016226;28;20053;-65
2022/03/04 08:08:08;;;;;;;56.53;34.20;;;;;;;10.22;80.48;101268.00;5019656;28;20045;-65
2022/03/04 08:10:35;;;;;;;55.72;32.50;;;;;;;10.42;80.29;101275.16;5021612;28;20050;-66
2022/03/04 08:13:02;;;;;;;50.40;32.90;;;;;;;10.88;79.31;101279.63;5019701;28;20052;-66
2022/03/04 08:15:30;;;;;;;61.10;33.92;;;;;;;11.00;78.34;101276.41;5020495;28;20054;-65
2022/03/04 08:17:57;;;;;;;58.42;32.83;;;;;;;10.61;77.99;101273.19;5019149;28;20053;-65
2022/03/04 08:20:26;;;;;;;52.85;31.02;;;;;;;11.29;79.29;101280.53;5018249;28;20061;-65
2022/03/04 08:22:56;;;;;;;51.80;31.58;;;;;;;11.57;76.65;101283.31;5022646;28;20064;-65
2022/03/04 08:25:24;;;;;;;62.45;32.70;;;;;;;11.60;76.12;101293.72;5019046;28;20493;-65
2022/03/04 08:27:52;;;;;;;51.90;32.50;;;;;;;11.17;76.81;101295.94;5018196;28;20493;-65
2022/03/04 08:30:20;;;;;;;56.80;34.00;;;;;;;10.87;77.02;101301.97;5019845;28;20064;-66
2022/03/04 08:32:47;;;;;;;59.10;34.05;;;;;;;10.60;79.10;101305.41;5032047;28;20058;-66
2022/03/04 08:35:15;;;;;;;64.55;34.88;;;;;;;10.50;79.34;101313.00;5016392;28;20049;-66
2022/03/04 08:37:42;;;;;;;60.97;37.13;;;;;;;10.53;79.63;101306.94;5014296;28;20516;-66
2022/03/04 08:40:10;;;;;;;54.67;34.90;;;;;;;10.59;79.01;101302.97;5016639;28;20481;-66
2022/03/04 08:42:39;;;;;;;67.68;35.95;;;;;;;10.88;78.82;101300.88;5015108;28;20050;-66
2022/03/04 08:45:08;;;;;;;59.42;35.53;;;;;;;11.01;78.68;101300.91;5015064;28;20046;-66
2022/03/04 08:47:36;;;;;;;58.05;35.35;;;;;;;11.00;77.19;101303.97;4998006;28;20054;-65
2022/03/04 08:50:04;;;;;;;58.72;35.17;;;;;;;11.14;77.49;101305.63;5015945;28;20042;-64
2022/03/04 08:52:32;;;;;;;64.95;36.40;;;;;;;11.40;76.25;101299.66;5021075;28;20410;-66
2022/03/04 08:54:59;;;;;;;64.45;34.35;;;;;;;11.38;75.97;101303.50;5016660;28;20050;-68
2022/03/04 08:57:28;;;;;;;60.22;36.38;;;;;;;11.69;74.92;101302.97;5013600;28;20073;-66
2022/03/04 09:00:01;;;;;;;58.20;36.10;;;;;;;11.38;76.00;101310.16;5016579;28;20041;-64
2022/03/04 09:02:28;;;;;;;55.60;35.10;;;;;;;11.71;75.03;101303.47;5023159;28;20054;-64
2022/03/04 09:04:55;;;;;;;63.63;35.17;;;;;;;11.24;75.13;101308.19;5015973;28;20057;-64
2022/03/04 09:07:22;;;;;;;62.58;36.72;;;;;;;10.89;77.99;101308.00;5016575;28;20053;-64
2022/03/04 09:09:50;;;;;;;73.28;38.65;;;;;;;10.85;78.02;101310.53;5015870;28;20061;-66
2022/03/04 09:12:19;;;;;;;56.70;35.67;;;;;;;11.18;77.43;101309.41;5015483;28;20053;-64
2022/03/04 09:14:46;;;;;;;61.03;36.83;;;;;;;11.05;77.18;101318.44;5014247;28;20061;-66
2022/03/04 09:17:13;;;;;;;63.05;36.97;;;;;;;11.12;77.53;101316.13;5019431;28;20053;-64
2022/03/04 09:19:40;;;;;;;59.50;38.65;;;;;;;11.25;76.77;101315.34;5016764;28;20045;-64
2022/03/04 09:22:23;;;;;;;64.55;37.28;;;;;;;11.81;75.35;101314.31;5013545;28;20053;-64
2022/03/04 09:24:50;;;;;;;60.00;35.78;;;;;;;11.83;74.08;101312.88;5014017;28;20041;-65
2022/03/04 09:27:18;;;;;;;74.00;38.15;;;;;;;12.07;73.15;101316.22;5014992;28;20065;-66
2022/03/04 09:29:48;;;;;;;61.90;37.08;;;;;;;11.78;73.56;101314.94;5013748;28;20045;-66
2022/03/04 09:32:15;;;;;;;;;;;;;;;11.33;74.92;101316.59;5018448;28;20053;-68
2022/03/04 09:34:42;;;;;;;57.38;36.10;;;;;;;11.79;74.50;101306.34;5016213;28;19921;-66
2022/03/04 09:37:10;;;;;;;64.13;38.22;;;;;;;11.75;73.65;101308.06;5021633;28;20068;-67
2022/03/04 09:39:37;;;;;;;63.47;38.38;;;;;;;12.07;73.03;101309.88;5016949;28;20049;-67
2022/03/04 09:42:07;;;;;;;64.88;35.90;;;;;;;12.03;73.31;101300.59;5014652;28;20042;-66
2022/03/04 09:44:34;;;;;;;62.88;38.58;;;;;;;12.24;72.22;101310.06;5014012;28;20056;-66
2022/03/04 09:47:02;;;;;;;74.65;38.75;;;;;;;12.45;71.28;101311.22;5019447;28;20054;-67
2022/03/04 09:49:32;;;;;;;58.15;37.03;;;;;;;12.35;71.15;101306.78;5014809;28;20062;-68
2022/03/04 09:52:00;;;;;;;57.85;36.97;;;;;;;12.71;70.99;101309.50;5013433;28;20053;-66
2022/03/04 09:54:28;;;;;;;65.60;36.97;;;;;;;13.00;69.36;101306.31;5008968;28;20682;-68
2022/03/04 09:56:57;;;;;;;63.13;37.75;;;;;;;12.90;69.06;101312.09;5016006;28;20476;-67
2022/03/04 09:59:25;;;;;;;61.30;38.07;;;;;;;13.06;68.86;101314.19;5011313;28;20096;-67
2022/03/04 10:01:53;;;;;;;69.70;37.22;;;;;;;13.01;68.42;101307.94;5007179;28;20042;-67
2022/03/04 10:04:25;;;;;;;56.30;36.28;;;;;;;12.93;68.85;101306.75;5014976;28;20508;-67
2022/03/04 10:06:52;;;;;;;57.38;37.65;;;;;;;12.56;69.93;101315.41;5019139;28;20052;-67
2022/03/04 10:09:38;;;;;;;62.60;39.08;;;;;;;12.65;69.93;101315.47;5016901;28;20050;-67
2022/03/04 10:12:09;;;;;;;66.65;36.83;;;;;;;12.92;69.08;101307.88;5013021;28;20053;-68
2022/03/04 10:15:04;;;;;;;62.80;38.17;;;;;;;12.57;69.64;101311.50;5014579;28;20065;-68
2022/03/04 10:17:34;;;;;;;66.45;38.20;;;;;;;12.48;70.38;101316.16;5008591;28;20045;-67
2022/03/04 10:20:05;;;;;;;66.00;37.58;;;;;;;12.63;70.08;101312.19;5016661;28;20042;-67
2022/03/04 10:22:42;;;;;;;63.72;38.67;;;;;;;13.01;69.15;101306.00;5012923;28;20053;-65
2022/03/04 10:25:29;;;;;;;57.17;38.33;;;;;;;13.45;67.57;101313.44;5013769;28;20050;-68
2022/03/04 10:28:08;;;;;;;62.45;38.88;;;;;;;13.79;66.20;101307.25;5019461;28;20054;-70
2022/03/04 10:30:35;;;;;;;62.33;37.83;;;;;;;13.38;66.38;101313.91;5009408;28;20524;-68
2022/03/04 10:33:09;;;;;;;64.90;39.75;;;;;;;13.33;66.85;101316.81;5010914;28;20524;-68
2022/03/04 10:35:38;;;;;;;63.25;38.80;;;;;;;13.27;67.09;101311.72;5025928;28;20046;-68
2022/03/04 10:38:06;;;;;;;59.22;38.00;;;;;;;13.07;67.40;101312.25;5013667;28;20050;-68
2022/03/04 10:40:35;;;;;;;60.63;38.35;;;;;;;12.51;69.36;101314.69;5015469;28;20050;-68
2022/03/04 10:43:05;;;;;;;60.30;39.37;;;;;;;12.31;69.63;101324.25;5010529;28;20050;-63
2022/03/04 10:45:42;;;;;;;61.97;38.95;;;;;;;12.32;70.08;101320.38;5016404;28;20053;-64
2022/03/04 10:48:10;;;;;;;67.38;39.05;;;;;;;12.37;70.09;101318.34;5006808;28;20061;-65
2022/03/04 10:50:40;;;;;;;61.80;39.67;;;;;;;12.31;70.32;101319.56;5007816;28;20048;-66
2022/03/04 10:53:16;;;;;;;59.42;37.50;;;;;;;12.24;71.03;101324.69;5008375;28;20444;-65
2022/03/04 10:55:47;;;;;;;63.40;38.53;;;;;;;12.48;70.20;101319.72;5006884;28;20049;-62
2022/03/04 10:58:16;;;;;;;63.15;39.20;;;;;;;12.51;70.58;101323.00;5013367;28;20058;-64
2022/03/04 11:00:48;;;;;;;67.60;40.97;;;;;;;12.64;69.38;101311.88;5015216;28;20042;-63
2022/03/04 11:03:19;;;;;;;60.00;39.35;;;;;;;12.96;68.65;101311.66;5011883;28;20057;-64
2022/03/04 11:05:47;;;;;;;;;;;;;;;13.11;67.84;101303.00;5015643;28;20052;-65
2022/03/04 11:08:15;;;;;;;60.67;38.85;;;;;;;12.41;68.86;101308.28;5007209;28;19929;-65
2022/03/04 11:10:44;;;;;;;59.78;41.00;;;;;;;12.13;70.23;101317.75;5014196;28;20145;-65
2022/03/04 11:13:12;;;;;;;70.28;40.10;;;;;;;12.32;70.17;101317.63;5014115;28;20050;-65